createdAt,value
2017-08-15T00:00:49.374Z,63.79
2017-08-15T00:00:49.950Z,63.89
2017-08-15T00:00:50.573Z,63.99
2017-08-15T00:00:51.144Z,63.99
2017-08-15T00:00:51.745Z,63.99
2017-08-15T00:00:52.340Z,63.79
2017-08-15T00:00:52.940Z,63.99
2017-08-15T00:00:53.548Z,63.99
2017-08-15T00:01:46.998Z,63.60
2017-08-15T00:01:47.593Z,63.31
2017-08-15T00:01:48.200Z,63.31
2017-08-15T00:01:48.797Z,63.31
2017-08-15T00:01:49.394Z,63.31
2017-08-15T00:01:49.993Z,63.60
2017-08-15T00:01:50.600Z,64.08
2017-08-15T00:01:51.200Z,63.60
2017-08-15T00:02:57.345Z,63.31
2017-08-15T00:02:57.942Z,63.41
2017-08-15T00:02:58.546Z,63.41
2017-08-15T00:02:59.146Z,64.08
2017-08-15T00:02:59.740Z,63.31
2017-08-15T00:03:00.340Z,63.41
2017-08-15T00:03:00.948Z,63.60
2017-08-15T00:03:01.544Z,63.22
2017-08-15T00:03:55.001Z,63.22
2017-08-15T00:03:55.598Z,63.79
2017-08-15T00:03:56.204Z,63.12
2017-08-15T00:03:56.801Z,63.79
2017-08-15T00:03:57.411Z,64.08
2017-08-15T00:03:58.003Z,63.89
2017-08-15T00:03:58.598Z,63.79
2017-08-15T00:03:59.193Z,63.89
2017-08-15T00:04:52.656Z,63.99
2017-08-15T00:04:53.253Z,63.89
2017-08-15T00:04:53.850Z,63.99
2017-08-15T00:04:54.449Z,63.70
2017-08-15T00:04:55.046Z,63.89
2017-08-15T00:04:55.649Z,63.70
2017-08-15T00:04:56.249Z,63.89
2017-08-15T00:04:56.853Z,63.89
2017-08-15T00:05:50.334Z,63.51
2017-08-15T00:05:50.900Z,63.51
2017-08-15T00:05:51.497Z,63.51
2017-08-15T00:05:52.104Z,63.70
2017-08-15T00:05:52.701Z,63.60
2017-08-15T00:05:53.300Z,63.60
2017-08-15T00:05:53.896Z,63.79
2017-08-15T00:05:54.502Z,63.79
2017-08-15T00:06:48.984Z,63.70
2017-08-15T00:06:49.582Z,63.51
2017-08-15T00:06:50.177Z,63.89
2017-08-15T00:06:50.780Z,63.70
2017-08-15T00:06:51.372Z,63.70
2017-08-15T00:06:51.976Z,63.89
2017-08-15T00:06:52.577Z,63.89
2017-08-15T00:06:53.172Z,63.70
2017-08-15T00:07:46.638Z,63.70
2017-08-15T00:07:47.229Z,63.79
2017-08-15T00:07:47.829Z,63.79
2017-08-15T00:07:48.432Z,63.70
2017-08-15T00:07:49.024Z,63.70
2017-08-15T00:07:49.627Z,63.60
2017-08-15T00:07:50.224Z,63.70
2017-08-15T00:07:50.825Z,63.51
2017-08-15T00:08:44.288Z,63.51
2017-08-15T00:08:44.876Z,63.60
2017-08-15T00:08:45.476Z,63.51
2017-08-15T00:08:46.080Z,63.60
2017-08-15T00:08:46.679Z,63.12
2017-08-15T00:08:47.275Z,63.60
2017-08-15T00:08:47.877Z,63.60
2017-08-15T00:08:48.480Z,63.70
2017-08-15T00:09:42.955Z,63.60
2017-08-15T00:09:43.552Z,63.89
2017-08-15T00:09:44.156Z,63.89
2017-08-15T00:09:44.752Z,63.70
2017-08-15T00:09:45.356Z,63.51
2017-08-15T00:09:45.959Z,63.89
2017-08-15T00:09:46.555Z,63.89
2017-08-15T00:09:47.159Z,63.60
2017-08-15T00:10:41.634Z,63.31
2017-08-15T00:10:42.230Z,63.79
2017-08-15T00:10:42.829Z,63.79
2017-08-15T00:10:43.433Z,63.70
2017-08-15T00:10:44.033Z,63.79
2017-08-15T00:10:44.633Z,63.79
2017-08-15T00:10:45.233Z,63.79
2017-08-15T00:10:45.834Z,63.79
2017-08-15T00:11:40.339Z,63.89
2017-08-15T00:11:40.906Z,63.89
2017-08-15T00:11:41.503Z,63.70
2017-08-15T00:11:42.103Z,63.70
2017-08-15T00:11:42.703Z,63.70
2017-08-15T00:11:43.306Z,63.89
2017-08-15T00:11:43.902Z,63.89
2017-08-15T00:11:44.502Z,63.70
2017-08-15T00:12:37.959Z,63.89
2017-08-15T00:12:38.556Z,63.70
2017-08-15T00:12:39.158Z,63.60
2017-08-15T00:12:39.758Z,63.70
2017-08-15T00:12:40.355Z,63.89
2017-08-15T00:12:40.959Z,63.89
2017-08-15T00:12:41.558Z,63.70
2017-08-15T00:12:42.164Z,63.51
2017-08-15T00:13:36.640Z,63.70
2017-08-15T00:13:37.235Z,63.99
2017-08-15T00:13:37.841Z,63.70
2017-08-15T00:13:38.440Z,63.70
2017-08-15T00:13:39.034Z,63.89
2017-08-15T00:13:39.635Z,63.70
2017-08-15T00:13:40.234Z,63.70
2017-08-15T00:13:40.831Z,63.70
2017-08-15T00:14:34.289Z,63.31
2017-08-15T00:14:34.886Z,63.70
2017-08-15T00:14:35.483Z,63.89
2017-08-15T00:14:36.082Z,63.89
2017-08-15T00:14:36.686Z,63.79
2017-08-15T00:14:37.283Z,63.70
2017-08-15T00:14:37.885Z,63.70
2017-08-15T00:14:38.485Z,63.51
2017-08-15T00:15:32.964Z,63.79
2017-08-15T00:15:33.561Z,63.89
2017-08-15T00:15:34.163Z,63.79
2017-08-15T00:15:34.763Z,63.70
2017-08-15T00:15:35.361Z,63.70
2017-08-15T00:15:35.957Z,63.12
2017-08-15T00:15:36.559Z,63.60
2017-08-15T00:15:37.161Z,64.08
2017-08-15T00:16:30.617Z,63.70
2017-08-15T00:16:31.212Z,63.79
2017-08-15T00:16:31.814Z,63.60
2017-08-15T00:16:32.412Z,63.60
2017-08-15T00:16:33.012Z,63.70
2017-08-15T00:16:33.608Z,63.70
2017-08-15T00:16:34.209Z,63.60
2017-08-15T00:16:34.812Z,63.70
2017-08-15T00:17:28.288Z,63.70
2017-08-15T00:17:28.865Z,63.51
2017-08-15T00:17:29.469Z,63.70
2017-08-15T00:17:30.069Z,63.89
2017-08-15T00:17:30.668Z,63.89
2017-08-15T00:17:31.268Z,63.51
2017-08-15T00:17:31.864Z,63.89
2017-08-15T00:17:32.465Z,63.86
2017-08-15T00:18:25.920Z,63.70
2017-08-15T00:18:26.517Z,63.51
2017-08-15T00:18:27.123Z,63.51
2017-08-15T00:18:27.721Z,63.60
2017-08-15T00:18:28.315Z,63.67
2017-08-15T00:18:28.912Z,63.99
2017-08-15T00:18:29.510Z,63.60
2017-08-15T00:18:30.113Z,63.89
2017-08-15T00:19:23.575Z,63.67
2017-08-15T00:19:24.170Z,63.76
2017-08-15T00:19:24.766Z,63.86
2017-08-15T00:19:25.364Z,63.70
2017-08-15T00:19:25.969Z,63.57
2017-08-15T00:19:26.564Z,63.86
2017-08-15T00:19:27.164Z,63.70
2017-08-15T00:19:27.767Z,63.76
2017-08-15T00:20:22.246Z,63.70
2017-08-15T00:20:22.838Z,63.76
2017-08-15T00:20:23.443Z,63.67
2017-08-15T00:20:24.050Z,63.99
2017-08-15T00:20:24.643Z,63.76
2017-08-15T00:20:25.244Z,63.67
2017-08-15T00:20:25.842Z,63.67
2017-08-15T00:20:26.443Z,63.57
2017-08-15T00:21:19.896Z,63.70
2017-08-15T00:21:20.496Z,63.76
2017-08-15T00:21:21.095Z,63.76
2017-08-15T00:21:21.692Z,63.76
2017-08-15T00:21:22.296Z,63.76
2017-08-15T00:21:22.896Z,63.41
2017-08-15T00:21:23.495Z,63.67
2017-08-15T00:21:24.095Z,63.86
2017-08-15T00:22:18.607Z,63.76
2017-08-15T00:22:19.170Z,63.76
2017-08-15T00:22:19.774Z,63.86
2017-08-15T00:22:20.367Z,63.60
2017-08-15T00:22:20.969Z,63.38
2017-08-15T00:22:21.567Z,63.76
2017-08-15T00:22:22.169Z,63.76
2017-08-15T00:22:22.766Z,63.86
2017-08-15T00:23:17.252Z,63.57
2017-08-15T00:23:17.846Z,63.57
2017-08-15T00:23:18.446Z,63.79
2017-08-15T00:23:19.047Z,63.67
2017-08-15T00:23:19.642Z,63.76
2017-08-15T00:23:20.244Z,63.86
2017-08-15T00:23:20.842Z,63.86
2017-08-15T00:23:21.441Z,63.79
2017-08-15T00:24:22.475Z,63.79
2017-08-15T00:24:23.076Z,63.70
2017-08-15T00:24:23.672Z,63.76
2017-08-15T00:24:24.272Z,63.60
2017-08-15T00:24:24.872Z,63.67
2017-08-15T00:24:25.472Z,63.76
2017-08-15T00:24:26.071Z,63.70
2017-08-15T00:24:26.675Z,63.76
2017-08-15T00:24:27.279Z,63.76
2017-08-15T00:24:27.875Z,63.76
2017-08-15T00:24:28.481Z,63.57
2017-08-15T00:24:29.078Z,63.76
2017-08-15T00:25:26.585Z,63.48
2017-08-15T00:25:27.181Z,63.95
2017-08-15T00:25:27.778Z,63.60
2017-08-15T00:26:21.263Z,63.86
2017-08-15T00:26:21.860Z,63.86
2017-08-15T00:26:22.461Z,64.05
2017-08-15T00:26:23.066Z,63.60
2017-08-15T00:26:23.665Z,63.67
2017-08-15T00:26:24.260Z,63.70
2017-08-15T00:26:24.863Z,63.70
2017-08-15T00:26:25.458Z,63.86
2017-08-15T00:27:18.949Z,64.25
2017-08-15T00:27:19.512Z,63.57
2017-08-15T00:27:20.109Z,63.09
2017-08-15T00:27:20.715Z,64.15
2017-08-15T00:27:21.308Z,63.48
2017-08-15T00:27:21.912Z,63.57
2017-08-15T00:27:22.509Z,64.18
2017-08-15T00:27:23.108Z,63.57
2017-08-15T00:28:16.572Z,64.34
2017-08-15T00:28:17.165Z,64.15
2017-08-15T00:28:17.764Z,63.57
2017-08-15T00:28:18.367Z,63.48
2017-08-15T00:28:18.966Z,64.34
2017-08-15T00:28:19.565Z,63.28
2017-08-15T00:28:20.163Z,64.15
2017-08-15T00:28:20.761Z,64.18
2017-08-15T00:29:14.218Z,64.34
2017-08-15T00:29:14.817Z,63.48
2017-08-15T00:29:15.418Z,64.37
2017-08-15T00:29:16.016Z,64.15
2017-08-15T00:29:16.613Z,63.57
2017-08-15T00:29:17.216Z,64.34
2017-08-15T00:29:17.815Z,63.48
2017-08-15T00:29:18.419Z,64.25
2017-08-15T00:30:11.886Z,64.05
2017-08-15T00:30:12.464Z,63.86
2017-08-15T00:30:13.063Z,63.86
2017-08-15T00:30:13.669Z,64.05
2017-08-15T00:30:14.270Z,63.95
2017-08-15T00:30:14.870Z,63.86
2017-08-15T00:30:15.470Z,63.95
2017-08-15T00:30:16.067Z,63.76
2017-08-15T00:31:09.527Z,64.05
2017-08-15T00:31:10.121Z,64.05
2017-08-15T00:31:10.722Z,63.95
2017-08-15T00:31:11.320Z,63.95
2017-08-15T00:31:11.921Z,64.05
2017-08-15T00:31:12.520Z,63.95
2017-08-15T00:31:13.115Z,63.95
2017-08-15T00:31:13.717Z,64.05
2017-08-15T00:32:07.176Z,64.05
2017-08-15T00:32:07.773Z,64.15
2017-08-15T00:32:08.373Z,64.05
2017-08-15T00:32:08.974Z,64.05
2017-08-15T00:32:09.570Z,64.05
2017-08-15T00:32:10.175Z,63.95
2017-08-15T00:32:10.768Z,63.95
2017-08-15T00:32:11.369Z,64.05
2017-08-15T00:33:04.853Z,63.86
2017-08-15T00:33:05.423Z,63.86
2017-08-15T00:33:06.022Z,63.95
2017-08-15T00:33:06.625Z,63.86
2017-08-15T00:33:07.222Z,63.86
2017-08-15T00:33:07.822Z,63.86
2017-08-15T00:33:08.425Z,63.86
2017-08-15T00:33:09.025Z,63.76
2017-08-15T00:34:02.476Z,63.86
2017-08-15T00:34:03.074Z,63.86
2017-08-15T00:34:03.670Z,64.05
2017-08-15T00:34:04.276Z,64.05
2017-08-15T00:34:04.876Z,64.05
2017-08-15T00:34:05.473Z,64.05
2017-08-15T00:34:06.070Z,63.86
2017-08-15T00:34:06.674Z,64.05
2017-08-15T00:35:00.130Z,63.76
2017-08-15T00:35:00.729Z,63.95
2017-08-15T00:35:01.338Z,64.15
2017-08-15T00:35:01.926Z,64.05
2017-08-15T00:35:02.525Z,63.95
2017-08-15T00:35:03.124Z,64.05
2017-08-15T00:35:03.725Z,63.86
2017-08-15T00:35:04.321Z,63.95
2017-08-15T00:35:57.779Z,63.86
2017-08-15T00:35:58.379Z,64.05
2017-08-15T00:35:58.977Z,64.05
2017-08-15T00:35:59.577Z,63.95
2017-08-15T00:36:00.177Z,63.95
2017-08-15T00:36:00.779Z,63.95
2017-08-15T00:36:01.379Z,64.05
2017-08-15T00:36:01.981Z,64.05
2017-08-15T00:36:55.436Z,63.95
2017-08-15T00:36:56.038Z,63.95
2017-08-15T00:36:56.631Z,64.05
2017-08-15T00:36:57.228Z,64.05
2017-08-15T00:36:57.829Z,63.95
2017-08-15T00:36:58.429Z,63.95
2017-08-15T00:36:59.027Z,63.86
2017-08-15T00:36:59.632Z,63.95
2017-08-15T00:37:54.111Z,63.86
2017-08-15T00:37:54.709Z,63.57
2017-08-15T00:37:55.299Z,63.95
2017-08-15T00:37:55.902Z,63.95
2017-08-15T00:37:56.502Z,63.57
2017-08-15T00:37:57.099Z,64.15
2017-08-15T00:37:57.703Z,63.67
2017-08-15T00:37:58.302Z,63.95
2017-08-15T00:38:51.786Z,63.95
2017-08-15T00:38:52.390Z,64.15
2017-08-15T00:38:52.958Z,63.95
2017-08-15T00:38:53.560Z,63.86
2017-08-15T00:38:54.159Z,63.86
2017-08-15T00:38:54.761Z,63.95
2017-08-15T00:38:55.352Z,63.95
2017-08-15T00:38:55.953Z,63.95
2017-08-15T00:39:49.415Z,63.67
2017-08-15T00:39:50.014Z,63.95
2017-08-15T00:39:50.611Z,63.95
2017-08-15T00:39:51.207Z,63.57
2017-08-15T00:39:51.807Z,63.57
2017-08-15T00:39:52.407Z,63.57
2017-08-15T00:39:53.011Z,64.05
2017-08-15T00:39:53.603Z,63.95
2017-08-15T00:40:48.085Z,63.95
2017-08-15T00:40:48.682Z,63.86
2017-08-15T00:40:49.282Z,63.95
2017-08-15T00:40:49.886Z,63.86
2017-08-15T00:40:50.485Z,63.95
2017-08-15T00:40:51.081Z,63.67
2017-08-15T00:40:51.680Z,63.86
2017-08-15T00:40:52.282Z,63.86
2017-08-15T00:41:45.741Z,63.86
2017-08-15T00:41:46.331Z,63.95
2017-08-15T00:41:46.931Z,63.86
2017-08-15T00:41:47.532Z,63.95
2017-08-15T00:41:48.130Z,63.86
2017-08-15T00:41:48.736Z,63.86
2017-08-15T00:41:49.331Z,63.86
2017-08-15T00:41:49.930Z,63.86
2017-08-15T00:42:43.394Z,63.86
2017-08-15T00:42:43.988Z,63.86
2017-08-15T00:42:44.590Z,63.86
2017-08-15T00:42:45.185Z,63.95
2017-08-15T00:42:45.790Z,63.86
2017-08-15T00:42:46.387Z,63.86
2017-08-15T00:42:46.995Z,63.86
2017-08-15T00:42:47.585Z,63.86
2017-08-15T00:43:41.063Z,63.86
2017-08-15T00:43:41.643Z,63.95
2017-08-15T00:43:42.234Z,63.95
2017-08-15T00:43:42.838Z,63.76
2017-08-15T00:43:43.442Z,63.86
2017-08-15T00:43:44.045Z,63.86
2017-08-15T00:43:44.639Z,63.86
2017-08-15T00:43:45.236Z,63.86
2017-08-15T00:44:39.715Z,63.86
2017-08-15T00:44:40.310Z,63.76
2017-08-15T00:44:40.912Z,63.86
2017-08-15T00:44:41.513Z,64.05
2017-08-15T00:44:42.113Z,63.86
2017-08-15T00:44:42.717Z,63.86
2017-08-15T00:44:43.316Z,63.86
2017-08-15T00:44:43.916Z,64.05
2017-08-15T00:45:37.368Z,63.76
2017-08-15T00:45:37.968Z,63.76
2017-08-15T00:45:38.562Z,63.67
2017-08-15T00:45:39.168Z,63.76
2017-08-15T00:45:39.766Z,63.76
2017-08-15T00:45:40.366Z,63.76
2017-08-15T00:45:40.965Z,63.86
2017-08-15T00:45:41.561Z,63.76
2017-08-15T00:46:36.047Z,63.76
2017-08-15T00:46:36.650Z,64.05
2017-08-15T00:46:37.240Z,63.67
2017-08-15T00:46:37.838Z,63.76
2017-08-15T00:46:38.442Z,63.76
2017-08-15T00:46:39.043Z,63.76
2017-08-15T00:46:39.640Z,63.86
2017-08-15T00:46:40.237Z,63.76
2017-08-15T00:47:34.717Z,63.86
2017-08-15T00:47:35.318Z,63.86
2017-08-15T00:47:35.915Z,63.76
2017-08-15T00:47:36.514Z,63.76
2017-08-15T00:47:37.119Z,63.76
2017-08-15T00:47:37.717Z,63.76
2017-08-15T00:47:38.320Z,63.76
2017-08-15T00:47:38.916Z,63.76
2017-08-15T00:48:32.420Z,63.76
2017-08-15T00:48:32.966Z,64.05
2017-08-15T00:48:33.564Z,63.76
2017-08-15T00:48:34.164Z,63.76
2017-08-15T00:48:34.765Z,63.76
2017-08-15T00:48:35.368Z,63.86
2017-08-15T00:48:35.974Z,64.15
2017-08-15T00:48:36.571Z,64.05
2017-08-15T00:49:30.027Z,63.76
2017-08-15T00:49:30.617Z,63.86
2017-08-15T00:49:31.216Z,63.76
2017-08-15T00:49:31.817Z,63.86
2017-08-15T00:49:32.420Z,63.76
2017-08-15T00:49:33.018Z,63.76
2017-08-15T00:49:33.621Z,63.67
2017-08-15T00:49:34.217Z,63.76
2017-08-15T00:50:27.678Z,63.76
2017-08-15T00:50:28.273Z,63.86
2017-08-15T00:50:28.870Z,63.95
2017-08-15T00:50:29.472Z,63.95
2017-08-15T00:50:30.072Z,63.76
2017-08-15T00:50:30.669Z,63.95
2017-08-15T00:50:31.268Z,63.76
2017-08-15T00:50:31.875Z,63.86
2017-08-15T00:51:26.354Z,63.76
2017-08-15T00:51:26.950Z,63.95
2017-08-15T00:51:27.550Z,63.86
2017-08-15T00:51:28.147Z,63.95
2017-08-15T00:51:28.748Z,63.76
2017-08-15T00:51:29.349Z,63.76
2017-08-15T00:51:29.949Z,63.76
2017-08-15T00:51:30.548Z,63.86
2017-08-15T00:52:24.006Z,63.76
2017-08-15T00:52:24.595Z,63.76
2017-08-15T00:52:25.198Z,63.86
2017-08-15T00:52:25.796Z,63.76
2017-08-15T00:52:26.399Z,63.67
2017-08-15T00:52:26.998Z,64.05
2017-08-15T00:52:27.600Z,63.76
2017-08-15T00:52:28.199Z,63.67
2017-08-15T00:53:21.650Z,63.76
2017-08-15T00:53:22.247Z,63.95
2017-08-15T00:53:22.851Z,63.95
2017-08-15T00:53:23.447Z,63.86
2017-08-15T00:53:24.047Z,63.95
2017-08-15T00:53:24.649Z,63.67
2017-08-15T00:53:25.250Z,63.95
2017-08-15T00:53:25.849Z,63.95
2017-08-15T00:54:19.332Z,63.76
2017-08-15T00:54:19.907Z,63.95
2017-08-15T00:54:20.504Z,63.86
2017-08-15T00:54:21.104Z,63.86
2017-08-15T00:54:21.700Z,64.05
2017-08-15T00:54:22.300Z,64.05
2017-08-15T00:54:22.902Z,63.67
2017-08-15T00:54:23.498Z,64.25
2017-08-15T00:55:16.961Z,63.86
2017-08-15T00:55:17.559Z,63.67
2017-08-15T00:55:18.154Z,63.76
2017-08-15T00:55:18.757Z,63.76
2017-08-15T00:55:19.355Z,63.76
2017-08-15T00:55:19.953Z,63.86
2017-08-15T00:55:20.553Z,63.76
2017-08-15T00:55:21.154Z,63.76
2017-08-15T00:56:14.606Z,64.12
2017-08-15T00:56:15.205Z,63.67
2017-08-15T00:56:15.810Z,64.05
2017-08-15T00:56:16.410Z,63.86
2017-08-15T00:56:17.004Z,63.76
2017-08-15T00:56:17.606Z,63.95
2017-08-15T00:56:18.207Z,63.95
2017-08-15T00:56:18.808Z,63.67
2017-08-15T00:57:13.280Z,63.83
2017-08-15T00:57:13.883Z,63.76
2017-08-15T00:57:14.480Z,63.76
2017-08-15T00:57:15.079Z,63.86
2017-08-15T00:57:15.681Z,63.76
2017-08-15T00:57:16.280Z,63.76
2017-08-15T00:57:16.881Z,63.95
2017-08-15T00:57:17.483Z,63.67
2017-08-15T00:58:10.934Z,64.05
2017-08-15T00:58:11.534Z,63.67
2017-08-15T00:58:12.133Z,63.73
2017-08-15T00:58:12.733Z,63.67
2017-08-15T00:58:13.330Z,63.76
2017-08-15T00:58:13.933Z,63.73
2017-08-15T00:58:14.536Z,63.76
2017-08-15T00:58:15.130Z,63.86
2017-08-15T00:59:09.642Z,63.67
2017-08-15T00:59:10.211Z,63.64
2017-08-15T00:59:10.812Z,63.95
2017-08-15T00:59:11.412Z,63.67
2017-08-15T00:59:12.004Z,63.83
2017-08-15T00:59:12.606Z,63.95
2017-08-15T00:59:13.207Z,63.67
2017-08-15T00:59:13.804Z,64.25
2017-08-15T01:00:08.291Z,64.05
2017-08-15T01:00:08.887Z,64.05
2017-08-15T01:00:09.483Z,63.67
2017-08-15T01:00:10.086Z,63.76
2017-08-15T01:00:10.680Z,63.76
2017-08-15T01:00:11.280Z,64.02
2017-08-15T01:00:11.880Z,64.02
2017-08-15T01:00:12.483Z,63.95
2017-08-15T01:01:06.966Z,64.02
2017-08-15T01:01:07.560Z,64.02
2017-08-15T01:01:08.160Z,64.02
2017-08-15T01:01:08.762Z,64.02
2017-08-15T01:01:09.362Z,64.02
2017-08-15T01:01:09.955Z,63.86
2017-08-15T01:01:10.559Z,64.02
2017-08-15T01:01:11.159Z,64.25
2017-08-15T01:02:05.645Z,64.22
2017-08-15T01:02:06.234Z,64.12
2017-08-15T01:02:06.834Z,64.22
2017-08-15T01:02:07.434Z,63.83
2017-08-15T01:02:08.039Z,64.22
2017-08-15T01:02:08.636Z,64.02
2017-08-15T01:02:09.234Z,64.02
2017-08-15T01:02:09.828Z,64.22
2017-08-15T01:03:04.313Z,64.22
2017-08-15T01:03:04.914Z,63.64
2017-08-15T01:03:05.511Z,64.02
2017-08-15T01:03:06.114Z,63.86
2017-08-15T01:03:06.717Z,64.05
2017-08-15T01:03:07.310Z,63.73
2017-08-15T01:03:07.910Z,63.73
2017-08-15T01:03:08.509Z,64.05
2017-08-15T01:04:01.966Z,63.73
2017-08-15T01:04:02.561Z,64.25
2017-08-15T01:04:03.160Z,64.02
2017-08-15T01:04:03.764Z,63.64
2017-08-15T01:04:04.362Z,63.73
2017-08-15T01:04:04.963Z,64.02
2017-08-15T01:04:05.563Z,63.83
2017-08-15T01:04:06.164Z,64.02
2017-08-15T01:04:59.640Z,64.12
2017-08-15T01:05:00.216Z,64.12
2017-08-15T01:05:00.810Z,63.76
2017-08-15T01:05:01.411Z,63.73
2017-08-15T01:05:02.014Z,63.73
2017-08-15T01:05:02.613Z,63.73
2017-08-15T01:05:03.210Z,63.73
2017-08-15T01:05:03.810Z,64.02
2017-08-15T01:05:57.273Z,64.12
2017-08-15T01:05:57.868Z,64.22
2017-08-15T01:05:58.466Z,64.22
2017-08-15T01:05:59.070Z,64.31
2017-08-15T01:05:59.669Z,63.83
2017-08-15T01:06:00.265Z,63.73
2017-08-15T01:06:00.870Z,64.15
2017-08-15T01:06:01.466Z,63.92
2017-08-15T01:06:54.920Z,64.02
2017-08-15T01:06:55.518Z,64.22
2017-08-15T01:06:56.118Z,64.31
2017-08-15T01:06:56.718Z,64.22
2017-08-15T01:06:57.318Z,64.31
2017-08-15T01:06:57.921Z,64.31
2017-08-15T01:06:58.515Z,64.22
2017-08-15T01:06:59.114Z,64.12
2017-08-15T01:07:52.577Z,64.50
2017-08-15T01:07:53.174Z,64.40
2017-08-15T01:07:53.772Z,64.31
2017-08-15T01:07:54.370Z,64.50
2017-08-15T01:07:54.971Z,64.31
2017-08-15T01:07:55.570Z,64.31
2017-08-15T01:07:56.172Z,64.31
2017-08-15T01:07:56.772Z,64.40
2017-08-15T01:08:51.251Z,64.63
2017-08-15T01:08:51.849Z,64.50
2017-08-15T01:08:52.441Z,64.40
2017-08-15T01:08:53.042Z,64.60
2017-08-15T01:08:53.644Z,64.40
2017-08-15T01:08:54.244Z,64.40
2017-08-15T01:08:54.843Z,64.60
2017-08-15T01:08:55.447Z,64.31
2017-08-15T01:09:48.919Z,64.60
2017-08-15T01:09:49.496Z,64.60
2017-08-15T01:09:50.097Z,64.69
2017-08-15T01:09:50.702Z,64.40
2017-08-15T01:09:51.294Z,64.31
2017-08-15T01:09:51.893Z,64.40
2017-08-15T01:09:52.493Z,64.22
2017-08-15T01:09:53.097Z,64.60
2017-08-15T01:10:46.556Z,64.31
2017-08-15T01:10:47.152Z,64.31
2017-08-15T01:10:47.754Z,64.50
2017-08-15T01:10:48.349Z,64.31
2017-08-15T01:10:48.948Z,64.50
2017-08-15T01:10:49.551Z,64.31
2017-08-15T01:10:50.151Z,64.31
2017-08-15T01:10:50.747Z,64.60
2017-08-15T01:11:45.233Z,64.50
2017-08-15T01:11:45.823Z,64.40
2017-08-15T01:11:46.423Z,64.50
2017-08-15T01:11:47.022Z,64.60
2017-08-15T01:11:47.620Z,64.31
2017-08-15T01:11:48.222Z,64.31
2017-08-15T01:11:48.819Z,64.60
2017-08-15T01:11:49.420Z,64.31
2017-08-15T01:12:43.918Z,64.40
2017-08-15T01:12:44.500Z,64.50
2017-08-15T01:12:45.103Z,64.79
2017-08-15T01:12:45.702Z,64.79
2017-08-15T01:12:46.299Z,64.40
2017-08-15T01:12:46.895Z,64.40
2017-08-15T01:12:47.498Z,64.79
2017-08-15T01:12:48.095Z,64.40
2017-08-15T01:13:41.562Z,64.40
2017-08-15T01:13:42.152Z,64.40
2017-08-15T01:13:42.748Z,64.40
2017-08-15T01:13:43.355Z,64.40
2017-08-15T01:13:43.963Z,64.40
2017-08-15T01:13:44.554Z,64.69
2017-08-15T01:13:45.155Z,64.22
2017-08-15T01:13:45.754Z,64.31
2017-08-15T01:14:39.238Z,64.31
2017-08-15T01:14:39.803Z,64.40
2017-08-15T01:14:40.406Z,64.40
2017-08-15T01:14:41.004Z,64.31
2017-08-15T01:14:41.603Z,64.31
2017-08-15T01:14:42.202Z,64.31
2017-08-15T01:14:42.801Z,64.31
2017-08-15T01:14:43.398Z,64.31
2017-08-15T01:15:36.854Z,64.40
2017-08-15T01:15:37.454Z,64.40
2017-08-15T01:15:38.054Z,64.22
2017-08-15T01:15:38.651Z,64.22
2017-08-15T01:15:39.250Z,64.22
2017-08-15T01:15:39.851Z,64.31
2017-08-15T01:15:40.454Z,64.31
2017-08-15T01:15:41.055Z,64.31
2017-08-15T01:16:35.530Z,64.40
2017-08-15T01:16:36.127Z,64.60
2017-08-15T01:16:36.727Z,64.40
2017-08-15T01:16:37.354Z,64.60
2017-08-15T01:16:37.937Z,64.40
2017-08-15T01:16:38.538Z,64.60
2017-08-15T01:16:39.133Z,64.50
2017-08-15T01:16:39.731Z,64.60
2017-08-15T01:17:34.210Z,64.69
2017-08-15T01:17:34.808Z,64.69
2017-08-15T01:17:35.414Z,64.12
2017-08-15T01:17:36.009Z,64.79
2017-08-15T01:17:36.605Z,64.12
2017-08-15T01:17:37.211Z,64.22
2017-08-15T01:17:37.802Z,64.79
2017-08-15T01:17:38.403Z,64.79
2017-08-15T01:18:33.404Z,64.40
2017-08-15T01:18:33.994Z,64.31
2017-08-15T01:18:34.591Z,64.50
2017-08-15T01:18:35.193Z,64.40
2017-08-15T01:18:35.794Z,64.40
2017-08-15T01:18:36.400Z,64.40
2017-08-15T01:18:36.988Z,64.50
2017-08-15T01:19:30.541Z,64.50
2017-08-15T01:19:31.146Z,64.40
2017-08-15T01:19:31.734Z,64.50
2017-08-15T01:19:32.333Z,64.50
2017-08-15T01:19:32.932Z,64.50
2017-08-15T01:19:33.533Z,64.50
2017-08-15T01:19:34.138Z,64.50
2017-08-15T01:19:34.734Z,64.40
2017-08-15T01:20:28.222Z,64.31
2017-08-15T01:20:28.790Z,64.40
2017-08-15T01:20:29.390Z,64.40
2017-08-15T01:20:29.985Z,64.50
2017-08-15T01:20:30.587Z,64.50
2017-08-15T01:20:31.184Z,64.31
2017-08-15T01:20:31.781Z,64.50
2017-08-15T01:20:32.388Z,64.60
2017-08-15T01:21:25.840Z,64.40
2017-08-15T01:21:26.436Z,64.40
2017-08-15T01:21:27.042Z,64.60
2017-08-15T01:21:27.636Z,64.31
2017-08-15T01:21:28.232Z,64.50
2017-08-15T01:21:28.835Z,64.40
2017-08-15T01:21:29.432Z,64.40
2017-08-15T01:21:30.033Z,64.40
2017-08-15T01:22:23.492Z,64.12
2017-08-15T01:22:24.093Z,64.12
2017-08-15T01:22:24.687Z,64.31
2017-08-15T01:22:25.287Z,64.31
2017-08-15T01:22:25.887Z,64.31
2017-08-15T01:22:26.488Z,64.31
2017-08-15T01:22:27.090Z,64.31
2017-08-15T01:22:27.691Z,64.12
2017-08-15T01:23:24.213Z,64.31
2017-08-15T01:23:24.814Z,64.02
2017-08-15T01:23:25.411Z,64.50
2017-08-15T01:24:19.922Z,64.12
2017-08-15T01:24:20.513Z,64.31
2017-08-15T01:24:21.115Z,64.31
2017-08-15T01:24:21.724Z,64.50
2017-08-15T01:24:22.324Z,64.31
2017-08-15T01:24:22.920Z,64.02
2017-08-15T01:24:23.518Z,64.22
2017-08-15T01:24:24.129Z,64.31
2017-08-15T01:25:17.572Z,64.12
2017-08-15T01:25:18.166Z,64.12
2017-08-15T01:25:18.769Z,64.69
2017-08-15T01:25:19.369Z,64.79
2017-08-15T01:25:19.969Z,64.79
2017-08-15T01:25:20.570Z,64.02
2017-08-15T01:25:21.175Z,64.79
2017-08-15T01:25:21.764Z,64.69
2017-08-15T01:26:15.252Z,64.89
2017-08-15T01:26:15.819Z,64.79
2017-08-15T01:26:16.422Z,64.79
2017-08-15T01:26:17.022Z,64.89
2017-08-15T01:26:17.625Z,64.69
2017-08-15T01:26:18.224Z,64.89
2017-08-15T01:26:18.821Z,64.02
2017-08-15T01:26:19.421Z,64.69
2017-08-15T01:27:13.900Z,64.89
2017-08-15T01:27:14.500Z,64.89
2017-08-15T01:27:15.098Z,64.89
2017-08-15T01:27:15.697Z,64.69
2017-08-15T01:27:16.297Z,64.79
2017-08-15T01:27:16.903Z,64.79
2017-08-15T01:27:17.496Z,64.79
2017-08-15T01:27:18.099Z,64.69
2017-08-15T01:28:11.552Z,64.79
2017-08-15T01:28:12.150Z,64.69
2017-08-15T01:28:12.751Z,64.89
2017-08-15T01:28:13.352Z,64.69
2017-08-15T01:28:13.953Z,64.79
2017-08-15T01:28:14.556Z,64.79
2017-08-15T01:28:15.151Z,64.69
2017-08-15T01:28:15.750Z,64.69
2017-08-15T01:29:09.204Z,64.89
2017-08-15T01:29:09.801Z,64.31
2017-08-15T01:29:10.399Z,64.69
2017-08-15T01:29:10.996Z,64.69
2017-08-15T01:29:11.603Z,64.69
2017-08-15T01:29:12.204Z,64.60
2017-08-15T01:29:12.800Z,64.69
2017-08-15T01:29:13.400Z,63.92
2017-08-15T01:30:06.969Z,64.22
2017-08-15T01:30:07.559Z,64.40
2017-08-15T01:30:08.153Z,64.69
2017-08-15T01:30:08.753Z,64.40
2017-08-15T01:30:09.353Z,64.69
2017-08-15T01:30:09.953Z,64.22
2017-08-15T01:30:10.555Z,64.69
2017-08-15T01:30:11.154Z,64.60
2017-08-15T01:31:05.662Z,64.22
2017-08-15T01:31:06.233Z,64.12
2017-08-15T01:31:06.832Z,64.12
2017-08-15T01:31:07.438Z,64.12
2017-08-15T01:31:08.030Z,64.69
2017-08-15T01:31:08.628Z,64.31
2017-08-15T01:31:09.235Z,64.12
2017-08-15T01:31:09.827Z,64.12
2017-08-15T01:32:04.304Z,64.12
2017-08-15T01:32:04.925Z,64.40
2017-08-15T01:32:05.505Z,64.60
2017-08-15T01:32:06.106Z,64.40
2017-08-15T01:32:06.707Z,64.50
2017-08-15T01:32:07.305Z,64.50
2017-08-15T01:32:07.905Z,64.60
2017-08-15T01:32:08.507Z,64.12
2017-08-15T01:33:02.060Z,64.69
2017-08-15T01:33:02.660Z,64.60
2017-08-15T01:33:03.260Z,64.12
2017-08-15T01:33:03.856Z,64.60
2017-08-15T01:33:04.464Z,64.69
2017-08-15T01:33:05.064Z,64.31
2017-08-15T01:33:05.663Z,64.31
2017-08-15T01:33:06.259Z,64.60
2017-08-15T01:33:59.715Z,64.69
2017-08-15T01:34:00.309Z,64.12
2017-08-15T01:34:00.911Z,64.69
2017-08-15T01:34:01.510Z,64.50
2017-08-15T01:34:02.111Z,64.40
2017-08-15T01:34:02.711Z,64.12
2017-08-15T01:34:03.311Z,64.69
2017-08-15T01:34:03.911Z,64.22
2017-08-15T01:34:58.389Z,64.31
2017-08-15T01:34:58.985Z,64.40
2017-08-15T01:34:59.581Z,64.40
2017-08-15T01:35:00.187Z,64.22